Time;durP1;ratioP1;P1;durP2;ratioP2;P2;SDS_P1;SDS_P2;PMS_P1;PMS_P2;Temp;Humidity;BMP_temperature;BMP_pressure;BME280_temperature;BME280_humidity;BME280_pressure;Samples;Min_cycle;Max_cycle;Signal;HPM_P1;HPM_P2
2022/10/30 00:01:27;;;;;;;8.80;5.87;;;;;;;13.20;64.09;95404.50;4877141;29;20701;-81
2022/10/30 00:03:54;;;;;;;8.60;5.70;;;;;;;13.28;63.97;95414.94;4876877;29;20213;-83
2022/10/30 00:06:21;;;;;;;9.03;5.97;;;;;;;13.19;64.20;95406.25;4877155;29;20581;-83
2022/10/30 00:08:48;;;;;;;7.47;5.57;;;;;;;13.26;63.94;95411.72;4877524;29;20197;-82
2022/10/30 00:11:16;;;;;;;6.97;5.27;;;;;;;13.14;64.48;95395.59;4878257;29;20583;-82
2022/10/30 00:13:44;;;;;;;6.47;5.77;;;;;;;13.20;64.26;95409.63;4877526;29;20677;-84
2022/10/30 00:16:11;;;;;;;8.33;6.03;;;;;;;13.21;64.18;95409.53;4877282;29;20264;-82
2022/10/30 00:18:40;;;;;;;8.63;5.87;;;;;;;13.20;64.46;95409.63;4876667;29;20197;-82
2022/10/30 00:21:08;;;;;;;7.70;6.30;;;;;;;13.19;64.23;95415.72;4877862;29;20229;-82
2022/10/30 00:23:35;;;;;;;7.40;6.07;;;;;;;13.17;64.31;95423.59;4876625;29;20204;-84
2022/10/30 00:26:04;;;;;;;7.60;6.03;;;;;;;13.17;64.22;95420.19;4877414;29;20205;-80
2022/10/30 00:28:31;;;;;;;6.83;5.13;;;;;;;13.11;64.40;95413.84;4877242;29;20220;-83
2022/10/30 00:30:59;;;;;;;6.73;5.17;;;;;;;12.92;64.48;95381.28;4877162;29;20201;-82
2022/10/30 00:33:26;;;;;;;9.00;5.40;;;;;;;13.12;64.63;95415.44;4888358;29;20201;-81
2022/10/30 00:35:54;;;;;;;9.67;6.00;;;;;;;13.11;64.58;95420.72;4887118;29;20650;-81
2022/10/30 00:38:22;;;;;;;8.83;5.40;;;;;;;13.10;64.65;95417.34;4879632;29;20379;-82
2022/10/30 00:40:49;;;;;;;8.50;5.93;;;;;;;13.08;64.53;95411.53;4877795;29;20196;-82
2022/10/30 00:43:34;;;;;;;6.70;4.73;;;;;;;13.02;64.73;95407.75;4877638;29;20205;-82
2022/10/30 00:46:07;;;;;;;7.97;5.03;;;;;;;13.04;64.83;95405.88;4877332;29;20196;-84
2022/10/30 00:48:34;;;;;;;6.37;5.37;;;;;;;12.99;64.85;95400.31;4877090;29;20200;-82
2022/10/30 00:51:08;;;;;;;9.63;6.13;;;;;;;13.00;64.75;95404.53;4876799;29;20249;-83
2022/10/30 00:53:35;;;;;;;7.17;5.10;;;;;;;13.00;65.04;95406.28;4877492;29;20202;-83
2022/10/30 00:56:07;;;;;;;6.00;4.53;;;;;;;12.70;64.83;95361.81;4881324;29;20204;-82
2022/10/30 00:58:39;;;;;;;7.13;5.17;;;;;;;12.95;64.96;95405.84;4880803;29;20209;-82
2022/10/30 01:01:11;;;;;;;6.00;4.70;;;;;;;12.79;65.09;95378.97;4881212;29;20280;-83
2022/10/30 01:03:39;;;;;;;9.93;5.63;;;;;;;12.96;65.02;95399.78;4862496;29;20678;-83
2022/10/30 01:06:11;;;;;;;8.17;5.37;;;;;;;12.90;65.26;95395.19;4862804;29;20201;-83
2022/10/30 01:08:38;;;;;;;6.63;5.10;;;;;;;12.78;65.25;95377.34;4877192;29;20198;-82
2022/10/30 01:11:06;;;;;;;6.80;4.97;;;;;;;12.90;65.21;95390.84;4881009;29;20227;-81
2022/10/30 01:13:38;;;;;;;5.33;4.70;;;;;;;12.91;65.46;95389.09;4881122;29;20198;-81
2022/10/30 01:16:18;;;;;;;5.87;5.27;;;;;;;12.59;65.27;95332.91;4867663;29;20396;-81
2022/10/30 01:18:52;;;;;;;6.27;5.30;;;;;;;12.81;65.50;95369.38;4862370;29;20197;-83
2022/10/30 01:21:37;;;;;;;6.00;4.80;;;;;;;12.77;65.36;95359.50;4863160;29;20229;-82
2022/10/30 01:24:16;;;;;;;7.67;4.83;;;;;;;12.79;65.48;95362.75;4863581;29;20201;-82
2022/10/30 01:26:52;;;;;;;7.27;4.50;;;;;;;12.79;65.44;95357.63;4863264;29;20202;-81
2022/10/30 01:29:34;;;;;;;8.00;4.73;;;;;;;12.73;65.50;95348.69;4865772;29;20198;-82
2022/10/30 01:32:13;;;;;;;8.30;4.67;;;;;;;12.81;65.59;95363.44;4880253;29;20204;-82
2022/10/30 01:34:44;;;;;;;6.23;4.70;;;;;;;12.77;65.36;95364.63;4883154;29;20257;-81
2022/10/30 01:37:19;;;;;;;6.47;4.63;;;;;;;12.73;65.65;95370.97;4874839;29;20194;-84
2022/10/30 01:39:46;;;;;;;6.77;4.80;;;;;;;12.76;65.66;95376.66;4862209;29;20292;-83
2022/10/30 01:42:44;;;;;;;6.07;4.60;;;;;;;12.76;65.61;95368.16;4861949;29;20229;-84
2022/10/30 01:45:16;;;;;;;7.13;4.47;;;;;;;12.74;65.67;95363.16;4862124;29;20265;-85
2022/10/30 01:47:57;;;;;;;5.73;4.70;;;;;;;12.74;65.93;95365.72;4861935;29;20213;-84
2022/10/30 01:50:36;;;;;;;7.93;5.23;;;;;;;12.71;65.75;95363.44;4862146;29;20212;-84
2022/10/30 01:53:13;;;;;;;9.90;5.23;;;;;;;12.71;65.93;95368.56;4862338;29;20205;-84
2022/10/30 01:55:50;;;;;;;6.10;5.03;;;;;;;12.67;65.72;95359.50;4861811;29;20197;-83
2022/10/30 01:58:22;;;;;;;6.90;5.10;;;;;;;12.64;65.90;95354.63;4861871;29;20189;-84
2022/10/30 02:00:54;;;;;;;5.87;4.67;;;;;;;12.68;66.03;95361.13;4861064;29;20197;-83
2022/10/30 02:03:22;;;;;;;10.40;5.90;;;;;;;12.67;65.97;95361.25;4861790;29;20594;-84
2022/10/30 02:05:50;;;;;;;6.73;4.57;;;;;;;12.62;65.67;95358.28;4860057;29;20198;-83
2022/10/30 02:08:20;;;;;;;7.77;4.70;;;;;;;12.58;66.19;95350.03;4861982;29;20201;-82
2022/10/30 02:10:49;;;;;;;7.83;5.43;;;;;;;12.52;66.17;95338.56;4861540;29;20201;-81
2022/10/30 02:13:16;;;;;;;6.70;5.13;;;;;;;12.64;65.96;95361.53;4862915;29;20202;-82
2022/10/30 02:15:45;;;;;;;7.80;5.03;;;;;;;12.49;66.07;95333.69;4860544;29;20241;-82
2022/10/30 02:18:11;;;;;;;7.47;5.20;;;;;;;12.54;65.84;95346.13;4860727;29;20212;-83
2022/10/30 02:20:40;;;;;;;8.93;5.00;;;;;;;12.61;66.04;95360.06;4862460;29;20691;-81
2022/10/30 02:23:07;;;;;;;8.10;5.37;;;;;;;12.59;66.11;95348.28;4869185;29;20237;-83
2022/10/30 02:25:35;;;;;;;5.40;4.90;;;;;;;12.54;66.25;95346.94;4873406;29;20194;-84
2022/10/30 02:28:02;;;;;;;6.80;4.67;;;;;;;12.58;66.08;95344.09;4872960;29;20194;-84
2022/10/30 02:30:30;;;;;;;5.77;4.53;;;;;;;12.57;66.32;95356.13;4871652;29;20688;-82
2022/10/30 02:32:57;;;;;;;6.10;4.70;;;;;;;12.56;66.36;95354.47;4870048;29;20198;-81
2022/10/30 02:35:24;;;;;;;4.93;4.40;;;;;;;12.50;66.25;95337.06;4880305;29;20218;-84
2022/10/30 02:37:52;;;;;;;6.43;4.73;;;;;;;12.54;66.38;95346.13;4872950;29;20202;-79
2022/10/30 02:40:20;;;;;;;5.70;4.90;;;;;;;12.50;66.24;95339.63;4866267;29;20201;-81
2022/10/30 02:42:52;;;;;;;6.77;4.93;;;;;;;12.52;66.45;95343.69;4869651;29;20233;-80
2022/10/30 02:45:19;;;;;;;6.67;5.10;;;;;;;12.51;66.37;95346.38;4862282;29;20198;-83
2022/10/30 02:47:46;;;;;;;8.10;4.80;;;;;;;12.50;66.53;95347.34;4860319;29;20197;-80
2022/10/30 02:50:14;;;;;;;6.90;5.00;;;;;;;12.41;66.25;95336.13;4860423;29;20190;-81
2022/10/30 02:52:40;;;;;;;5.90;4.60;;;;;;;12.48;66.42;95352.59;4860035;29;20599;-81
2022/10/30 02:55:09;;;;;;;5.90;5.23;;;;;;;12.48;66.72;95349.22;4859968;29;20212;-80
2022/10/30 02:57:36;;;;;;;5.50;4.90;;;;;;;12.41;66.70;95345.56;4859907;29;20205;-80
2022/10/30 03:00:04;;;;;;;6.17;4.90;;;;;;;12.45;66.56;95358.00;4860281;29;20198;-80
2022/10/30 03:02:31;;;;;;;6.33;5.10;;;;;;;12.34;66.55;95339.34;4859975;29;20224;-81
2022/10/30 03:04:57;;;;;;;6.10;5.20;;;;;;;12.31;66.71;95335.31;4860066;29;20193;-81
2022/10/30 03:07:24;;;;;;;6.87;5.30;;;;;;;12.35;66.63;95344.34;4860546;29;20201;-83
2022/10/30 03:09:53;;;;;;;5.30;4.60;;;;;;;12.43;66.69;95367.56;4861101;29;20204;-81
2022/10/30 03:12:21;;;;;;;5.93;4.70;;;;;;;12.27;66.77;95339.88;4859400;29;20663;-81
2022/10/30 03:14:48;;;;;;;6.83;5.00;;;;;;;12.35;66.76;95359.75;4859486;29;20202;-83
2022/10/30 03:17:15;;;;;;;7.97;4.60;;;;;;;12.37;66.88;95373.22;4858863;29;20205;-83
2022/10/30 03:19:42;;;;;;;8.10;5.13;;;;;;;12.27;66.67;95357.84;4859682;29;20204;-83
2022/10/30 03:22:10;;;;;;;10.80;5.20;;;;;;;12.37;66.97;95378.38;4859102;29;20222;-81
2022/10/30 03:24:37;;;;;;;8.20;5.20;;;;;;;12.36;66.86;95376.75;4859411;29;20197;-81
2022/10/30 03:27:04;;;;;;;7.00;5.07;;;;;;;12.36;66.90;95376.75;4859008;29;20201;-79
2022/10/30 03:29:32;;;;;;;5.90;4.80;;;;;;;12.34;66.99;95368.34;4859700;29;20190;-81
2022/10/30 03:31:59;;;;;;;7.07;4.93;;;;;;;12.24;66.92;95354.72;4859125;29;20198;-81
2022/10/30 03:34:27;;;;;;;7.80;4.93;;;;;;;12.21;66.95;95342.16;4858726;29;20261;-80
2022/10/30 03:36:54;;;;;;;7.47;5.40;;;;;;;12.22;66.79;95343.78;4858974;29;20205;-80
2022/10/30 03:39:21;;;;;;;8.63;5.83;;;;;;;12.28;67.04;95356.06;4858574;29;20201;-80
2022/10/30 03:41:48;;;;;;;5.73;4.70;;;;;;;12.26;67.00;95358.78;4859527;29;20198;-80
2022/10/30 03:44:15;;;;;;;7.27;5.03;;;;;;;12.27;66.98;95368.09;4858535;29;20250;-80
2022/10/30 03:46:43;;;;;;;5.23;4.73;;;;;;;12.23;67.29;95353.91;4858765;29;20190;-81
2022/10/30 03:49:10;;;;;;;5.70;4.80;;;;;;;12.24;67.04;95354.72;4858364;29;20193;-80
2022/10/30 03:51:36;;;;;;;6.60;5.17;;;;;;;12.24;67.38;95360.66;4859010;29;20208;-80
2022/10/30 03:54:04;;;;;;;5.70;4.50;;;;;;;12.24;67.34;95352.97;4858919;29;20189;-81
2022/10/30 03:56:30;;;;;;;5.57;5.00;;;;;;;12.23;67.22;95361.59;4858833;29;20689;-80
2022/10/30 03:58:57;;;;;;;5.93;4.67;;;;;;;12.22;67.22;95357.41;4858528;29;20205;-81
2022/10/30 04:01:24;;;;;;;7.20;5.13;;;;;;;12.22;67.23;95354.03;4858653;29;20205;-81
2022/10/30 04:03:52;;;;;;;7.60;5.77;;;;;;;12.19;67.57;95352.53;4858564;29;20237;-82
2022/10/30 04:06:19;;;;;;;5.67;4.93;;;;;;;12.18;67.44;95348.38;4859015;29;20191;-82
2022/10/30 04:08:46;;;;;;;7.80;5.27;;;;;;;12.08;67.23;95326.19;4858628;29;20213;-81
2022/10/30 04:11:13;;;;;;;6.87;5.67;;;;;;;12.08;67.33;95321.88;4858565;29;20209;-83
2022/10/30 04:13:40;;;;;;;6.53;5.33;;;;;;;12.00;67.49;95314.03;4858333;29;20190;-83
2022/10/30 04:16:07;;;;;;;7.53;5.83;;;;;;;12.15;67.50;95337.56;4858037;29;20257;-80
2022/10/30 04:18:34;;;;;;;6.13;5.53;;;;;;;12.15;67.17;95345.25;4858632;29;20201;-82
2022/10/30 04:21:02;;;;;;;6.67;5.43;;;;;;;12.14;67.39;95348.75;4858833;29;20201;-80
2022/10/30 04:23:29;;;;;;;8.87;5.07;;;;;;;12.09;67.60;95338.06;4841674;29;20225;-81
2022/10/30 04:25:56;;;;;;;5.63;4.97;;;;;;;12.13;67.40;95349.69;4858160;29;20205;-83
2022/10/30 04:28:22;;;;;;;6.57;5.40;;;;;;;12.12;67.55;95341.19;4857827;29;20199;-80
2022/10/30 04:30:49;;;;;;;5.87;4.73;;;;;;;12.08;67.55;95336.44;4858691;29;20197;-81
2022/10/30 04:33:16;;;;;;;6.40;4.53;;;;;;;12.07;67.55;95340.75;4859128;29;20201;-83
2022/10/30 04:35:43;;;;;;;9.77;5.83;;;;;;;12.04;67.41;95334.13;4859621;29;20573;-80
2022/10/30 04:38:13;;;;;;;8.40;5.37;;;;;;;12.10;67.41;95353.34;4873024;29;20197;-81
2022/10/30 04:40:43;;;;;;;7.73;5.43;;;;;;;12.08;67.52;95350.06;4862937;29;20201;-81
2022/10/30 04:43:10;;;;;;;6.57;5.33;;;;;;;12.09;67.53;95359.41;4858897;29;20260;-82
2022/10/30 04:45:38;;;;;;;5.97;5.37;;;;;;;11.98;67.65;95338.97;4859114;29;20232;-79
2022/10/30 04:48:07;;;;;;;9.10;5.60;;;;;;;11.89;67.52;95322.63;4858254;29;20754;-80
2022/10/30 04:50:34;;;;;;;8.13;5.80;;;;;;;11.94;67.75;95335.88;4858385;29;20619;-80
2022/10/30 04:53:02;;;;;;;7.40;5.40;;;;;;;12.01;67.67;95357.50;4858029;29;20213;-82
2022/10/30 04:55:31;;;;;;;10.50;6.10;;;;;;;12.05;67.54;95366.53;4858251;29;20220;-81
2022/10/30 04:57:59;;;;;;;9.73;5.63;;;;;;;11.94;67.62;95343.56;4857633;29;20217;-84
2022/10/30 05:00:27;;;;;;;6.87;5.40;;;;;;;12.07;67.73;95365.59;4858801;29;20198;-80
2022/10/30 05:02:54;;;;;;;6.77;5.57;;;;;;;12.07;67.49;95363.03;4857798;29;20237;-80
2022/10/30 05:05:21;;;;;;;9.83;5.87;;;;;;;12.06;67.69;95367.34;4858458;29;20206;-81
2022/10/30 05:07:48;;;;;;;7.57;6.07;;;;;;;12.07;67.70;95363.03;4857861;29;20198;-80
2022/10/30 05:10:15;;;;;;;8.87;6.10;;;;;;;12.08;67.72;95367.22;4858518;29;20205;-82
2022/10/30 05:12:45;;;;;;;5.87;5.23;;;;;;;12.03;67.65;95362.47;4857818;29;20654;-81
2022/10/30 05:15:13;;;;;;;6.83;5.20;;;;;;;12.10;67.59;95371.28;4858141;29;20234;-81
2022/10/30 05:17:40;;;;;;;5.77;4.87;;;;;;;12.11;67.72;95372.88;4857767;29;20670;-82
2022/10/30 05:20:08;;;;;;;6.20;5.60;;;;;;;11.88;67.75;95336.41;4858148;29;20194;-83
2022/10/30 05:22:35;;;;;;;6.90;6.20;;;;;;;12.10;67.65;95362.78;4857651;29;20230;-82
2022/10/30 05:25:02;;;;;;;8.17;5.70;;;;;;;12.20;67.51;95371.31;4857853;29;20193;-81
2022/10/30 05:27:29;;;;;;;7.43;5.90;;;;;;;12.11;67.35;95352.38;4858463;29;20201;-82
2022/10/30 05:29:57;;;;;;;6.90;5.17;;;;;;;12.20;67.46;95368.72;4857913;29;20265;-84
2022/10/30 05:32:24;;;;;;;8.33;5.83;;;;;;;12.29;67.38;95373.06;4858440;29;20202;-83
2022/10/30 05:34:52;;;;;;;7.53;6.57;;;;;;;12.35;67.57;95380.25;4858303;29;20201;-84
2022/10/30 05:37:19;;;;;;;7.90;6.27;;;;;;;12.40;67.24;95380.66;4858793;29;20293;-83
2022/10/30 05:39:46;;;;;;;7.77;6.27;;;;;;;12.45;67.17;95386.22;4866649;29;20198;-83
2022/10/30 05:42:12;;;;;;;7.90;6.17;;;;;;;12.50;67.11;95378.94;4876060;29;20201;-82
2022/10/30 05:44:39;;;;;;;8.13;6.30;;;;;;;12.55;67.02;95374.19;4874960;29;20650;-81
2022/10/30 05:47:08;;;;;;;9.00;6.43;;;;;;;12.39;67.10;95339.75;4863251;29;20197;-81
2022/10/30 05:49:34;;;;;;;11.80;6.47;;;;;;;12.68;67.03;95378.28;4866364;29;20201;-81
2022/10/30 05:52:01;;;;;;;10.20;6.67;;;;;;;12.74;66.93;95370.88;4867262;29;20209;-80
2022/10/30 05:54:28;;;;;;;10.50;6.27;;;;;;;12.81;66.86;95369.38;4864627;29;20210;-83
2022/10/30 05:56:56;;;;;;;11.60;6.67;;;;;;;12.89;66.79;95370.47;4863239;29;20202;-81
2022/10/30 05:59:23;;;;;;;10.17;6.83;;;;;;;12.96;66.69;95367.22;4868392;29;20201;-80
2022/10/30 06:01:50;;;;;;;8.00;7.17;;;;;;;12.97;66.75;95361.13;4873431;29;20208;-82
2022/10/30 06:04:18;;;;;;;11.23;6.77;;;;;;;13.10;66.79;95360.84;4866638;29;20236;-82
2022/10/30 06:06:45;;;;;;;8.23;6.80;;;;;;;13.36;66.65;95373.97;4866123;29;20198;-82
2022/10/30 06:09:12;;;;;;;9.50;6.83;;;;;;;13.65;67.67;95376.47;4862348;29;20209;-86
2022/10/30 06:11:39;;;;;;;7.63;6.87;;;;;;;14.00;69.47;95359.56;4862149;29;20193;-86
2022/10/30 06:14:06;;;;;;;7.93;6.77;;;;;;;14.46;70.19;95363.78;4861652;29;20682;-84
2022/10/30 06:16:33;;;;;;;8.37;6.90;;;;;;;14.97;70.44;95364.16;4863485;29;20241;-82
2022/10/30 06:19:00;;;;;;;8.00;6.33;;;;;;;15.66;69.92;95380.63;4862031;29;20301;-83
2022/10/30 06:21:28;;;;;;;7.70;6.63;;;;;;;16.29;69.15;95380.31;4862770;29;20205;-84
2022/10/30 06:23:57;;;;;;;8.47;6.53;;;;;;;16.93;68.38;95376.31;4862909;29;20718;-83
2022/10/30 06:26:26;;;;;;;7.80;6.53;;;;;;;17.62;67.41;95375.97;4863458;29;20567;-82
2022/10/30 06:28:53;;;;;;;9.83;6.13;;;;;;;18.30;66.70;95380.63;4861648;29;20213;-81
2022/10/30 06:31:23;;;;;;;7.13;5.83;;;;;;;19.01;65.65;95384.03;4861129;29;20190;-82
2022/10/30 06:33:52;;;;;;;6.70;5.67;;;;;;;19.66;64.64;95378.34;4861846;29;20197;-83
2022/10/30 06:36:19;;;;;;;11.30;6.17;;;;;;;20.33;63.28;95377.44;4861045;29;20206;-80
2022/10/30 06:38:47;;;;;;;9.10;6.33;;;;;;;20.97;62.17;95376.78;4872942;29;20209;-82
2022/10/30 06:41:14;;;;;;;10.03;6.10;;;;;;;21.60;60.72;95380.38;4872804;29;20194;-81
2022/10/30 06:43:41;;;;;;;9.82;6.32;;;;;;;22.20;59.28;95378.19;4865102;29;20482;-83
2022/10/30 06:46:11;;;;;;;6.88;5.63;;;;;;;22.65;58.26;95370.75;4862040;29;20205;-82
2022/10/30 06:48:37;;;;;;;7.93;5.55;;;;;;;23.31;57.13;95386.53;4863026;29;20262;-82
2022/10/30 06:51:06;;;;;;;10.70;6.38;;;;;;;23.76;55.80;95384.19;4862713;29;20233;-84
2022/10/30 06:53:33;;;;;;;6.05;5.45;;;;;;;24.33;55.00;95406.19;4867744;29;20204;-84
2022/10/30 06:56:07;;;;;;;7.40;6.00;;;;;;;24.80;53.73;95404.22;4871921;29;20190;-81
2022/10/30 06:58:38;;;;;;;6.47;5.50;;;;;;;25.15;52.65;95388.16;4872152;29;20280;-84
2022/10/30 07:01:05;;;;;;;8.35;6.10;;;;;;;25.56;51.68;95387.69;4872216;29;20198;-82
2022/10/30 07:03:32;;;;;;;7.93;5.78;;;;;;;25.97;51.28;95396.81;4865939;29;20225;-82
2022/10/30 07:06:02;;;;;;;8.05;5.63;;;;;;;26.30;50.09;95393.06;4873468;29;20265;-80
2022/10/30 07:08:29;;;;;;;10.55;5.93;;;;;;;26.61;49.59;95392.13;4873887;29;20740;-81
2022/10/30 07:10:59;;;;;;;6.72;5.32;;;;;;;26.90;48.61;95401.84;4873268;29;20257;-81
2022/10/30 07:13:29;;;;;;;7.65;5.57;;;;;;;27.19;48.26;95399.44;4873437;29;20835;-81
2022/10/30 07:15:58;;;;;;;8.05;6.30;;;;;;;27.44;47.32;95396.66;4866862;29;20616;-83
2022/10/30 07:18:25;;;;;;;8.30;6.03;;;;;;;27.59;46.81;95373.41;4863752;29;20611;-81
2022/10/30 07:20:55;;;;;;;9.48;5.47;;;;;;;27.71;46.19;95357.59;4864784;29;20194;-80
2022/10/30 07:23:24;;;;;;;5.90;5.30;;;;;;;28.01;45.68;95368.03;4864611;29;20298;-81
2022/10/30 07:25:51;;;;;;;7.15;5.82;;;;;;;28.32;45.56;95394.97;4865086;29;20194;-82
2022/10/30 07:28:18;;;;;;;7.88;5.65;;;;;;;28.48;45.06;95395.09;4864780;29;20209;-80
2022/10/30 07:30:46;;;;;;;5.40;4.90;;;;;;;28.64;44.57;95390.94;4866891;29;20651;-81
2022/10/30 07:33:14;;;;;;;10.20;5.25;;;;;;;28.67;44.15;95358.06;4864833;29;20201;-81
2022/10/30 07:35:41;;;;;;;7.80;5.47;;;;;;;28.92;43.69;95376.97;4865973;29;20200;-82
2022/10/30 07:38:13;;;;;;;9.20;6.10;;;;;;;29.02;43.79;95365.06;4864408;29;20253;-81
2022/10/30 07:40:40;;;;;;;10.95;5.15;;;;;;;29.05;43.30;95362.75;4848297;29;20202;-81
2022/10/30 07:43:09;;;;;;;8.52;5.60;;;;;;;29.04;42.68;95344.56;4865610;29;20225;-84
2022/10/30 07:45:36;;;;;;;7.10;5.25;;;;;;;29.31;42.55;95377.16;4868060;29;20197;-83
2022/10/30 07:48:06;;;;;;;6.13;5.53;;;;;;;29.37;42.47;95376.22;4867895;29;20200;-84
2022/10/30 07:50:33;;;;;;;6.47;5.70;;;;;;;29.33;42.50;95372.47;4866330;29;20194;-81
2022/10/30 07:53:04;;;;;;;7.57;5.55;;;;;;;29.23;42.51;95373.09;4866604;29;20675;-83
2022/10/30 07:55:32;;;;;;;8.02;5.20;;;;;;;28.75;43.21;95316.38;4862692;29;20288;-85
2022/10/30 07:57:59;;;;;;;7.03;5.65;;;;;;;28.83;42.97;95352.06;4860126;29;20741;-81
2022/10/30 08:00:29;;;;;;;8.45;5.47;;;;;;;28.46;43.27;95325.34;4859735;29;20208;-83
2022/10/30 08:02:57;;;;;;;6.38;5.18;;;;;;;28.36;43.21;95344.31;4862127;29;20289;-83
2022/10/30 08:05:25;;;;;;;8.48;6.05;;;;;;;28.20;43.14;95352.94;4863599;29;20221;-83
2022/10/30 08:07:53;;;;;;;8.93;6.60;;;;;;;27.95;43.82;95353.19;4863674;29;20257;-84
2022/10/30 08:10:20;;;;;;;7.70;6.05;;;;;;;27.68;43.66;95348.38;4864495;29;20198;-83
2022/10/30 08:12:47;;;;;;;6.30;5.60;;;;;;;27.41;43.46;95342.72;4864385;29;20209;-84
2022/10/30 08:15:15;;;;;;;8.98;6.10;;;;;;;26.98;43.44;95320.13;4862329;29;20233;-85
2022/10/30 08:17:43;;;;;;;10.00;6.50;;;;;;;26.86;43.43;95337.69;4861469;29;20235;-82
2022/10/30 08:20:11;;;;;;;10.25;6.38;;;;;;;26.60;43.84;95335.41;4860577;29;20579;-84
2022/10/30 08:22:47;;;;;;;11.18;6.55;;;;;;;26.34;43.58;95337.31;4859037;29;20203;-84
2022/10/30 08:25:15;;;;;;;9.77;7.25;;;;;;;25.95;43.77;95313.16;4859248;29;20233;-85
2022/10/30 08:27:51;;;;;;;8.38;6.40;;;;;;;25.85;43.90;95333.81;4859812;29;20197;-85
2022/10/30 08:30:18;;;;;;;12.05;6.97;;;;;;;25.19;43.88;95271.53;4859220;29;20204;-84
2022/10/30 08:32:45;;;;;;;8.88;6.35;;;;;;;25.42;43.90;95341.63;4859451;29;20767;-85
2022/10/30 08:35:15;;;;;;;11.90;7.07;;;;;;;25.22;44.12;95339.19;4859024;29;20202;-83
2022/10/30 08:37:48;;;;;;;8.63;7.22;;;;;;;24.94;44.24;95329.06;4859191;29;20276;-84
2022/10/30 08:40:15;;;;;;;8.13;6.22;;;;;;;24.78;44.47;95325.97;4864502;29;20213;-84
2022/10/30 08:42:49;;;;;;;10.05;6.78;;;;;;;24.61;44.33;95330.06;4873064;29;20713;-84
2022/10/30 08:45:16;;;;;;;13.10;7.15;;;;;;;24.44;44.63;95326.34;4867827;29;20248;-84
2022/10/30 08:47:45;;;;;;;9.20;7.32;;;;;;;24.34;44.35;95334.56;4861360;29;20209;-86
2022/10/30 08:50:12;;;;;;;11.70;6.75;;;;;;;24.20;44.98;95339.06;4861349;29;20680;-85
2022/10/30 08:52:39;;;;;;;7.78;6.97;;;;;;;24.02;44.99;95331.06;4859709;29;20198;-84
2022/10/30 08:55:11;;;;;;;10.23;6.47;;;;;;;23.92;44.83;95336.75;4861303;29;20198;-86
2022/10/30 08:57:41;;;;;;;9.38;7.30;;;;;;;23.80;45.13;95332.34;4859828;29;20197;-85
2022/10/30 09:00:09;;;;;;;8.27;7.32;;;;;;;23.60;45.21;95317.47;4859334;29;20190;-84
2022/10/30 09:02:38;;;;;;;9.38;6.85;;;;;;;23.57;45.54;95327.50;4858854;29;20208;-85
2022/10/30 09:05:06;;;;;;;8.68;7.35;;;;;;;23.39;45.57;95308.03;4859452;29;20233;-86
2022/10/30 09:07:35;;;;;;;8.75;6.78;;;;;;;23.27;45.51;95307.88;4858255;29;20689;-86
2022/10/30 09:10:02;;;;;;;10.65;7.00;;;;;;;23.24;45.76;95312.69;4858180;29;20194;-81
2022/10/30 09:12:30;;;;;;;13.70;7.82;;;;;;;23.20;45.68;95317.50;4860155;29;20194;-82
2022/10/30 09:14:57;;;;;;;8.63;7.35;;;;;;;22.91;45.67;95279.53;4864155;29;20201;-82
2022/10/30 09:17:24;;;;;;;10.43;7.28;;;;;;;22.95;45.84;95296.41;4867703;29;20205;-84
2022/10/30 09:19:51;;;;;;;7.38;6.57;;;;;;;22.76;45.89;95276.28;4868462;29;20197;-85
2022/10/30 09:22:18;;;;;;;7.95;6.35;;;;;;;22.91;46.10;95305.63;4863208;29;20208;-82
2022/10/30 09:24:44;;;;;;;9.18;7.15;;;;;;;22.71;46.18;95281.28;4864361;29;20230;-85
2022/10/30 09:27:11;;;;;;;7.72;6.68;;;;;;;22.81;46.15;95310.41;4863019;29;20206;-84
2022/10/30 09:29:40;;;;;;;7.72;6.35;;;;;;;22.76;46.54;95310.19;4863569;29;20194;-84
2022/10/30 09:32:08;;;;;;;11.63;7.20;;;;;;;22.71;46.45;95307.34;4862132;29;20194;-83
2022/10/30 09:34:36;;;;;;;8.02;6.85;;;;;;;22.68;46.43;95303.34;4862886;29;20208;-85
2022/10/30 09:37:03;;;;;;;8.85;6.60;;;;;;;22.65;46.77;95295.91;4862163;29;20254;-84
2022/10/30 09:39:30;;;;;;;10.07;7.20;;;;;;;22.62;46.75;95296.31;4862855;29;20201;-84
2022/10/30 09:42:18;;;;;;;12.70;7.32;;;;;;;22.59;46.60;95291.50;4862713;29;20757;-83
2022/10/30 09:44:56;;;;;;;9.38;6.38;;;;;;;22.36;46.96;95249.34;4864185;29;20233;-83
2022/10/30 09:47:33;;;;;;;11.35;6.57;;;;;;;22.54;46.94;95283.47;4869435;29;20201;-81
2022/10/30 09:50:24;;;;;;;7.40;6.20;;;;;;;22.53;46.83;95274.84;4871684;29;20197;-82
2022/10/30 09:53:00;;;;;;;7.60;6.18;;;;;;;22.46;46.77;95260.19;4862558;29;20693;-82
2022/10/30 09:55:34;;;;;;;9.10;6.38;;;;;;;22.54;47.07;95273.06;4861780;29;20284;-81
2022/10/30 09:58:16;;;;;;;10.30;6.68;;;;;;;22.56;46.90;95260.63;4862718;29;20213;-82
2022/10/30 10:00:50;;;;;;;6.32;5.68;;;;;;;22.57;46.91;95254.38;4863075;29;20190;-81
2022/10/30 10:03:38;;;;;;;12.38;6.13;;;;;;;22.62;47.08;95251.97;4865976;29;20201;-86
2022/10/30 10:06:11;;;;;;;9.98;6.22;;;;;;;22.63;47.01;95247.59;4868123;29;20202;-84
2022/10/30 10:08:42;;;;;;;7.07;5.72;;;;;;;22.65;47.43;95235.94;4871867;29;20205;-81
2022/10/30 10:11:13;;;;;;;8.00;5.93;;;;;;;22.69;47.04;95241.56;4870554;29;20194;-83
2022/10/30 10:13:48;;;;;;;9.68;5.80;;;;;;;22.68;47.17;95230.34;4864696;29;20190;-81
2022/10/30 10:16:19;;;;;;;7.28;5.97;;;;;;;22.69;46.99;95226.72;4876981;29;20605;-82
2022/10/30 10:18:48;;;;;;;11.45;5.93;;;;;;;22.76;47.34;95224.13;4880382;29;20211;-84
2022/10/30 10:21:23;;;;;;;7.65;5.20;;;;;;;22.78;47.06;95219.50;4875750;29;20197;-84
2022/10/30 10:23:52;;;;;;;8.80;5.88;;;;;;;22.58;47.10;95188.19;4861118;29;20198;-81
2022/10/30 10:26:27;;;;;;;10.02;5.82;;;;;;;22.70;47.04;95189.22;4860529;29;20190;-81
2022/10/30 10:29:08;;;;;;;7.93;5.97;;;;;;;22.86;47.03;95208.09;4867110;29;20189;-81
2022/10/30 10:31:46;;;;;;;7.95;5.65;;;;;;;22.85;47.22;95207.28;4871259;29;20198;-80
2022/10/30 10:34:26;;;;;;;6.63;5.55;;;;;;;22.88;47.58;95204.25;4879656;29;20209;-82
2022/10/30 10:36:59;;;;;;;7.50;5.32;;;;;;;22.72;47.10;95173.38;4873089;29;20201;-80
2022/10/30 10:39:50;;;;;;;6.05;4.93;;;;;;;22.96;47.14;95200.69;4869874;29;20194;-80
2022/10/30 10:42:27;;;;;;;7.00;5.43;;;;;;;22.98;47.38;95196.06;4863620;29;20198;-81
2022/10/30 10:45:17;;;;;;;10.05;5.22;;;;;;;23.00;47.33;95197.47;4870901;29;20213;-81
2022/10/30 10:48:05;;;;;;;6.05;5.05;;;;;;;23.03;47.31;95189.22;4863556;29;20208;-85
2022/10/30 10:50:35;;;;;;;5.43;4.93;;;;;;;22.99;47.27;95176.81;4861214;29;20201;-82
2022/10/30 10:53:07;;;;;;;5.43;4.80;;;;;;;23.10;47.27;95189.25;4860867;29;20194;-83
2022/10/30 10:55:37;;;;;;;5.07;4.50;;;;;;;23.13;47.16;95188.03;4860800;29;20658;-84
2022/10/30 10:58:15;;;;;;;8.63;4.95;;;;;;;23.13;46.88;95167.94;4861896;29;20190;-84
2022/10/30 11:00:43;;;;;;;5.47;4.97;;;;;;;23.09;46.81;95156.31;4861787;29;20246;-83
2022/10/30 11:03:15;;;;;;;7.18;4.75;;;;;;;23.15;46.76;95162.53;4860346;29;20196;-87
2022/10/30 11:05:49;;;;;;;5.90;5.05;;;;;;;23.23;46.75;95167.53;4860830;29;20240;-82
2022/10/30 11:08:19;;;;;;;7.13;4.95;;;;;;;23.25;46.89;95161.09;4860075;29;20204;-83
2022/10/30 11:10:49;;;;;;;5.97;4.55;;;;;;;23.21;47.02;95141.63;4863068;29;20204;-83
2022/10/30 11:13:16;;;;;;;6.38;4.75;;;;;;;23.24;47.02;95141.22;4865383;29;20198;-83
2022/10/30 11:16:00;;;;;;;6.55;4.75;;;;;;;23.33;46.69;95148.84;4865926;29;20234;-81
2022/10/30 11:18:28;;;;;;;6.13;4.60;;;;;;;23.28;46.74;95139.00;4866937;29;20197;-83
2022/10/30 11:21:03;;;;;;;6.07;4.60;;;;;;;23.31;46.65;95125.53;4864264;29;20202;-84
2022/10/30 11:23:37;;;;;;;6.47;4.32;;;;;;;23.37;46.78;95123.94;4863450;29;20269;-87
2022/10/30 11:26:05;;;;;;;5.30;4.57;;;;;;;23.42;47.09;95124.09;4860617;29;20217;-82
2022/10/30 11:28:41;;;;;;;6.30;4.53;;;;;;;23.44;46.93;95125.47;4861110;29;20212;-84
2022/10/30 11:31:19;;;;;;;6.25;3.85;;;;;;;23.41;46.63;95117.28;4860939;29;20204;-83
2022/10/30 11:33:48;;;;;;;5.50;4.80;;;;;;;23.41;46.77;95109.47;4860586;29;20197;-85
2022/10/30 11:36:17;;;;;;;5.18;4.63;;;;;;;23.46;46.57;95107.81;4861724;29;20205;-83
2022/10/30 11:38:44;;;;;;;8.10;4.65;;;;;;;23.36;46.65;95088.38;4859894;29;20642;-84
2022/10/30 11:41:12;;;;;;;5.35;4.55;;;;;;;23.36;46.76;95085.75;4858828;29;20190;-82
2022/10/30 11:43:40;;;;;;;7.97;4.70;;;;;;;23.43;46.90;95092.56;4859818;29;20197;-83